Time;durP1;ratioP1;P1;durP2;ratioP2;P2;SDS_P1;SDS_P2;PMS_P1;PMS_P2;Temp;Humidity;BMP_temperature;BMP_pressure;BME280_temperature;BME280_humidity;BME280_pressure;Samples;Min_cycle;Max_cycle;Signal;HPM_P1;HPM_P2
2022/03/14 05:21:16;;;;;;;0.40;0.40;;;6.30;99.90;;;;;;6130839;22;20445;-73
2022/03/14 05:23:44;;;;;;;0.30;0.30;;;6.20;99.90;;;;;;5035959;28;20236;-72
2022/03/14 05:26:11;;;;;;;0.40;0.40;;;6.20;99.90;;;;;;5036976;28;20318;-72
2022/03/14 05:28:38;;;;;;;0.40;0.40;;;6.10;99.90;;;;;;5036929;28;20558;-69
2022/03/14 05:31:05;;;;;;;0.30;0.30;;;6.00;99.90;;;;;;5036688;28;20692;-70
2022/03/14 05:33:32;;;;;;;0.30;0.30;;;5.90;99.90;;;;;;5036766;28;20229;-70
2022/03/14 05:35:58;;;;;;;0.30;0.30;;;5.90;99.90;;;;;;5037953;28;20541;-71
2022/03/14 05:38:26;;;;;;;0.30;0.30;;;5.70;99.90;;;;;;5037460;28;20205;-71
2022/03/14 05:40:54;;;;;;;0.30;0.30;;;5.60;99.90;;;;;;5038026;28;20233;-71
2022/03/14 05:43:26;;;;;;;0.40;0.40;;;5.50;99.90;;;;;;5037761;28;20612;-72
2022/03/14 05:45:53;;;;;;;0.38;0.38;;;5.40;99.90;;;;;;5038320;28;20376;-72
2022/03/14 05:48:20;;;;;;;0.38;0.38;;;5.30;99.90;;;;;;5036638;28;20702;-74
2022/03/14 05:50:47;;;;;;;0.35;0.35;;;5.20;99.90;;;;;;5036325;28;20217;-71
2022/03/14 05:53:14;;;;;;;0.30;0.30;;;5.10;99.90;;;;;;5036862;28;20207;-70
2022/03/14 05:55:41;;;;;;;0.30;0.30;;;5.10;99.90;;;;;;5036834;28;20199;-70
2022/03/14 05:58:09;;;;;;;0.30;0.30;;;5.00;99.90;;;;;;5073696;22;20227;-66
2022/03/14 06:00:36;;;;;;;0.40;0.40;;;5.00;99.90;;;;;;5055683;28;20204;-66
2022/03/14 06:03:03;;;;;;;0.35;0.35;;;4.90;99.90;;;;;;5055603;28;20207;-67
2022/03/14 06:05:30;;;;;;;0.30;0.30;;;4.90;99.90;;;;;;5055518;28;20228;-67
2022/03/14 06:07:57;;;;;;;0.30;0.30;;;4.80;99.90;;;;;;5055616;28;20217;-67
2022/03/14 06:10:24;;;;;;;0.30;0.30;;;4.80;99.90;;;;;;5055677;28;20235;-67
2022/03/14 06:12:51;;;;;;;0.40;0.40;;;4.90;99.90;;;;;;5055681;28;20200;-67
2022/03/14 06:15:19;;;;;;;0.40;0.40;;;5.20;99.90;;;;;;5055620;28;20218;-65
2022/03/14 11:23:06;;;;;;;2.33;0.68;;;11.60;36.20;;;;;;5305112;22;20316;-71
2022/03/14 11:25:33;;;;;;;0.85;0.47;;;11.60;35.30;;;;;;5055014;28;20255;-71
2022/03/14 11:28:03;;;;;;;1.38;0.75;;;11.60;34.90;;;;;;5054066;28;20291;-71
2022/03/14 11:30:31;;;;;;;5.05;0.90;;;11.40;34.80;;;;;;5055186;28;20200;-71
2022/03/14 11:32:58;;;;;;;1.25;0.55;;;11.40;36.70;;;;;;5054643;28;20759;-71
2022/03/14 11:35:25;;;;;;;0.50;0.50;;;11.50;37.30;;;;;;5054762;28;20730;-71
2022/03/14 11:37:55;;;;;;;0.50;0.50;;;11.60;37.10;;;;;;5078340;22;20231;-68
2022/03/14 11:40:24;;;;;;;1.13;0.60;;;11.70;37.00;;;;;;5054328;28;20204;-69
2022/03/14 11:42:51;;;;;;;1.35;0.68;;;11.80;35.90;;;;;;5054127;28;20200;-69
2022/03/14 11:45:18;;;;;;;1.92;0.77;;;11.80;35.60;;;;;;5053813;28;20224;-69
2022/03/14 11:47:46;;;;;;;1.30;0.60;;;11.80;34.70;;;;;;5053553;28;20699;-69
2022/03/14 11:50:14;;;;;;;2.20;0.57;;;11.70;35.20;;;;;;5053559;28;20660;-70
2022/03/14 11:52:43;;;;;;;1.75;0.80;;;11.70;35.10;;;;;;5053677;28;20207;-70
2022/03/14 11:55:18;;;;;;;0.63;0.63;;;11.80;35.00;;;;;;5053457;28;20196;-69
2022/03/14 11:57:47;;;;;;;0.70;0.70;;;11.90;35.20;;;;;;5053735;28;20250;-70
2022/03/14 12:00:34;;;;;;;1.85;1.13;;;12.00;35.10;;;;;;5053337;28;20682;-70
2022/03/14 12:03:03;;;;;;;0.47;0.47;;;12.10;34.00;;;;;;5053653;28;20211;-70
2022/03/14 12:05:49;;;;;;;0.43;0.40;;;12.10;33.90;;;;;;5053555;28;20227;-70
2022/03/14 12:08:52;;;;;;;0.95;0.52;;;12.20;33.00;;;;;;5053773;28;20235;-70
2022/03/14 12:11:37;;;;;;;1.05;0.65;;;12.20;32.00;;;;;;5053608;28;20184;-70
2022/03/14 12:14:09;;;;;;;0.77;0.77;;;12.10;31.90;;;;;;5053533;28;20181;-69
2022/03/14 12:16:37;;;;;;;1.17;0.52;;;12.10;31.90;;;;;;5053589;28;20248;-67
2022/03/14 12:19:29;;;;;;;0.60;0.60;;;12.20;31.90;;;;;;5053219;28;20606;-68
2022/03/14 12:21:57;;;;;;;0.40;0.40;;;12.30;31.80;;;;;;5053777;28;20272;-68
2022/03/14 12:24:48;;;;;;;0.70;0.50;;;12.30;31.00;;;;;;5053235;28;20663;-69
2022/03/14 12:27:20;;;;;;;1.40;0.65;;;12.40;30.30;;;;;;5053376;28;20243;-69
2022/03/14 12:29:50;;;;;;;1.45;0.80;;;12.30;30.00;;;;;;5053661;28;20594;-69
2022/03/14 12:32:32;;;;;;;0.47;0.47;;;12.30;29.70;;;;;;5053212;28;20207;-68
2022/03/14 12:35:02;;;;;;;1.00;0.50;;;12.30;30.10;;;;;;5052988;28;20181;-68
2022/03/14 12:37:43;;;;;;;1.58;0.80;;;12.30;30.40;;;;;;5052765;28;20706;-68
2022/03/14 12:40:32;;;;;;;1.10;0.52;;;12.40;30.40;;;;;;5053246;28;20555;-68
2022/03/14 12:43:11;;;;;;;2.83;0.70;;;12.40;29.70;;;;;;5053377;28;20184;-68
2022/03/14 12:45:41;;;;;;;0.73;0.70;;;12.50;29.50;;;;;;5053702;28;20210;-69
2022/03/14 12:48:16;;;;;;;0.50;0.50;;;12.50;30.00;;;;;;5053232;28;20227;-69
2022/03/14 12:51:02;;;;;;;0.63;0.63;;;12.60;30.20;;;;;;5053180;28;20689;-69
2022/03/14 12:53:54;;;;;;;0.68;0.50;;;12.60;30.30;;;;;;5053367;28;20216;-69
2022/03/14 12:56:24;;;;;;;1.00;0.55;;;12.50;30.90;;;;;;5040201;28;20686;-69
2022/03/14 12:59:00;;;;;;;0.40;0.40;;;12.50;31.10;;;;;;5056822;28;20189;-69
2022/03/14 13:01:31;;;;;;;0.43;0.30;;;12.60;31.20;;;;;;5056735;28;20287;-68
2022/03/14 13:03:59;;;;;;;0.95;0.57;;;12.60;30.60;;;;;;5056601;28;20196;-68
2022/03/14 13:06:31;;;;;;;0.63;0.40;;;12.70;30.50;;;;;;5059830;28;20221;-68
2022/03/14 13:08:59;;;;;;;0.40;0.40;;;12.60;30.30;;;;;;5061162;28;20224;-69
2022/03/14 13:11:40;;;;;;;0.40;0.40;;;12.60;30.30;;;;;;5059536;28;20201;-69
2022/03/14 13:14:10;;;;;;;0.30;0.30;;;12.70;30.80;;;;;;5060243;28;20205;-69
2022/03/14 13:16:41;;;;;;;0.52;0.52;;;12.70;30.90;;;;;;5061117;28;20213;-69
2022/03/14 13:19:16;;;;;;;0.47;0.40;;;12.80;30.50;;;;;;5061185;28;20200;-67
2022/03/14 13:21:43;;;;;;;0.52;0.40;;;12.80;30.20;;;;;;5060877;28;20196;-70
2022/03/14 13:24:11;;;;;;;0.35;0.32;;;12.80;30.00;;;;;;5059903;28;20683;-70
2022/03/14 13:26:41;;;;;;;0.32;0.32;;;12.90;30.00;;;;;;5059891;28;20228;-68
2022/03/14 13:29:10;;;;;;;0.73;0.60;;;12.90;29.90;;;;;;5061061;28;20192;-68
2022/03/14 13:31:41;;;;;;;0.40;0.40;;;12.90;30.00;;;;;;5059584;28;20193;-69
2022/03/14 13:34:10;;;;;;;0.30;0.30;;;12.90;29.70;;;;;;5058931;28;20189;-69
2022/03/14 13:36:41;;;;;;;0.50;0.50;;;12.90;30.40;;;;;;5060137;28;20236;-69
2022/03/14 13:39:09;;;;;;;0.43;0.43;;;13.00;30.10;;;;;;5060608;28;20280;-69
2022/03/14 13:41:38;;;;;;;1.65;0.70;;;13.00;29.40;;;;;;5061979;28;20188;-69
2022/03/14 13:44:14;;;;;;;0.50;0.50;;;12.80;29.20;;;;;;5060748;28;20197;-69
2022/03/14 13:46:46;;;;;;;0.50;0.50;;;12.80;29.40;;;;;;5061057;28;20232;-69
2022/03/14 13:49:21;;;;;;;1.65;0.80;;;12.80;29.50;;;;;;5060927;28;20193;-68
2022/03/14 13:51:50;;;;;;;1.17;0.70;;;12.80;29.60;;;;;;5060660;28;20275;-68
2022/03/14 13:54:22;;;;;;;0.70;0.70;;;12.80;29.40;;;;;;5060095;28;20648;-68
2022/03/14 13:56:51;;;;;;;1.83;0.50;;;12.90;29.30;;;;;;5060749;28;20221;-68
2022/03/14 13:59:30;;;;;;;1.02;0.60;;;12.90;29.20;;;;;;5060371;28;20212;-68
2022/03/14 14:02:03;;;;;;;0.73;0.73;;;12.90;29.00;;;;;;5059117;28;20197;-68
2022/03/14 14:04:32;;;;;;;0.55;0.55;;;13.00;29.10;;;;;;5060058;28;20189;-68
2022/03/14 14:07:00;;;;;;;0.70;0.70;;;13.00;29.00;;;;;;5060074;28;20286;-68
2022/03/14 14:09:30;;;;;;;0.70;0.50;;;13.00;29.00;;;;;;5060210;28;20228;-68
2022/03/14 14:12:09;;;;;;;0.63;0.63;;;13.10;29.20;;;;;;5060701;28;20204;-70
2022/03/14 14:14:38;;;;;;;0.82;0.60;;;13.10;29.10;;;;;;5059622;28;20536;-70
2022/03/14 14:17:12;;;;;;;2.38;0.63;;;13.20;28.90;;;;;;5059540;28;20221;-69
2022/03/14 14:20:03;;;;;;;1.80;0.52;;;13.20;29.00;;;;;;5060557;28;20205;-69
2022/03/14 14:22:32;;;;;;;0.47;0.47;;;13.30;28.80;;;;;;5060278;28;20189;-69
2022/03/14 14:25:00;;;;;;;0.55;0.55;;;13.40;28.60;;;;;;5059439;28;20205;-67
2022/03/14 14:27:28;;;;;;;0.50;0.50;;;13.40;28.30;;;;;;5059018;28;20225;-68
2022/03/14 14:29:56;;;;;;;0.60;0.45;;;13.40;28.10;;;;;;5058948;28;20238;-68
2022/03/14 14:32:26;;;;;;;0.50;0.50;;;13.40;28.10;;;;;;5058920;28;20208;-69
2022/03/14 14:34:54;;;;;;;0.80;0.77;;;13.50;28.00;;;;;;5059555;28;20528;-70
2022/03/14 14:37:22;;;;;;;0.65;0.65;;;13.40;27.60;;;;;;5057956;28;20699;-70
2022/03/14 14:39:49;;;;;;;0.73;0.70;;;13.40;27.60;;;;;;5058430;28;20690;-70
2022/03/14 14:42:17;;;;;;;0.40;0.40;;;13.30;27.50;;;;;;5059740;28;20204;-70
2022/03/14 14:44:44;;;;;;;0.52;0.52;;;13.30;27.50;;;;;;5059691;28;20614;-70
2022/03/14 14:47:12;;;;;;;0.52;0.52;;;13.40;27.60;;;;;;5059397;28;20320;-70
2022/03/14 14:49:41;;;;;;;0.47;0.47;;;13.30;27.50;;;;;;5059773;28;20204;-70
2022/03/14 14:52:09;;;;;;;0.40;0.40;;;13.40;27.60;;;;;;5059994;28;20644;-69
2022/03/14 14:54:36;;;;;;;0.40;0.40;;;13.40;27.60;;;;;;5059712;28;20201;-70
2022/03/14 14:57:06;;;;;;;0.95;0.50;;;13.40;27.60;;;;;;5058399;28;20274;-69
2022/03/14 14:59:35;;;;;;;0.55;0.55;;;13.40;27.30;;;;;;5059739;28;20227;-69
2022/03/14 15:02:03;;;;;;;0.73;0.70;;;13.40;27.30;;;;;;5058640;28;20201;-69
2022/03/14 15:04:32;;;;;;;0.65;0.65;;;13.40;27.00;;;;;;5058555;28;20563;-70
2022/03/14 15:07:00;;;;;;;0.55;0.55;;;13.40;26.90;;;;;;5058673;28;20278;-69
2022/03/14 15:09:28;;;;;;;0.50;0.50;;;13.40;26.80;;;;;;5058818;28;20220;-70
2022/03/14 15:11:55;;;;;;;0.40;0.40;;;13.40;26.60;;;;;;5059046;28;20710;-70
2022/03/14 15:14:22;;;;;;;0.40;0.40;;;13.40;26.80;;;;;;5057186;28;20683;-68
2022/03/14 15:16:49;;;;;;;0.45;0.45;;;13.30;27.20;;;;;;5054290;28;20278;-68
2022/03/14 15:19:16;;;;;;;0.85;0.70;;;13.40;27.60;;;;;;5054503;28;20287;-68
2022/03/14 15:21:44;;;;;;;2.25;0.63;;;13.30;27.50;;;;;;5054452;28;20201;-68
2022/03/14 15:24:12;;;;;;;0.50;0.50;;;13.30;27.80;;;;;;5053992;28;20667;-69
2022/03/14 15:26:39;;;;;;;1.05;0.77;;;13.20;27.70;;;;;;5054090;28;20225;-68
2022/03/14 15:29:07;;;;;;;0.90;0.85;;;13.20;27.50;;;;;;5053492;28;20208;-68
2022/03/14 15:31:34;;;;;;;1.92;1.00;;;13.20;27.50;;;;;;5054085;28;20204;-68
2022/03/14 15:34:01;;;;;;;0.68;0.68;;;13.20;27.50;;;;;;5054223;28;20200;-68
2022/03/14 15:36:28;;;;;;;0.60;0.60;;;13.20;27.50;;;;;;5053705;28;20211;-67
2022/03/14 15:38:56;;;;;;;0.85;0.65;;;13.20;27.50;;;;;;5053706;28;20547;-67
2022/03/14 15:41:24;;;;;;;0.40;0.40;;;13.10;27.40;;;;;;5053932;28;20197;-70
2022/03/14 15:43:52;;;;;;;1.10;0.57;;;13.10;27.40;;;;;;5054069;28;20275;-71
2022/03/14 15:46:19;;;;;;;0.65;0.65;;;13.10;27.40;;;;;;5053747;28;20439;-69
2022/03/14 15:48:47;;;;;;;0.57;0.40;;;13.10;27.50;;;;;;5053864;28;20295;-71
2022/03/14 15:51:14;;;;;;;0.40;0.40;;;13.10;27.80;;;;;;5053376;28;20204;-70
2022/03/14 15:53:42;;;;;;;0.30;0.30;;;13.00;27.90;;;;;;5053567;28;20224;-69
2022/03/14 15:56:09;;;;;;;1.30;0.47;;;13.00;28.20;;;;;;5053630;28;20643;-69
2022/03/14 15:58:38;;;;;;;0.40;0.40;;;12.90;28.60;;;;;;5053560;28;20317;-70
2022/03/14 16:01:05;;;;;;;0.43;0.43;;;12.80;29.20;;;;;;5053649;28;20204;-70
2022/03/14 16:03:32;;;;;;;0.50;0.50;;;12.70;29.70;;;;;;5054033;28;20287;-69
2022/03/14 16:05:58;;;;;;;0.32;0.32;;;12.60;30.10;;;;;;5054070;28;20243;-69
2022/03/14 16:08:26;;;;;;;0.40;0.40;;;12.50;30.80;;;;;;5053945;28;20275;-69
2022/03/14 16:10:53;;;;;;;0.30;0.30;;;12.40;31.10;;;;;;5053861;28;20267;-69
2022/03/14 16:13:21;;;;;;;0.40;0.40;;;12.30;32.00;;;;;;5053645;28;20727;-70
2022/03/14 16:15:49;;;;;;;0.35;0.35;;;12.10;32.10;;;;;;5054031;28;20284;-69
2022/03/14 16:18:18;;;;;;;0.30;0.30;;;12.00;32.30;;;;;;5053574;28;20220;-70
2022/03/14 16:20:47;;;;;;;0.40;0.40;;;11.90;32.40;;;;;;5053441;28;20536;-70
2022/03/14 16:23:14;;;;;;;0.22;0.22;;;11.90;33.10;;;;;;5053531;28;20183;-70
2022/03/14 16:25:41;;;;;;;0.40;0.40;;;11.80;32.20;;;;;;5053609;28;20283;-70
2022/03/14 16:28:08;;;;;;;0.40;0.40;;;11.70;32.60;;;;;;5053331;28;20319;-69
2022/03/14 16:30:34;;;;;;;0.30;0.30;;;11.60;32.80;;;;;;5053263;28;20287;-70
2022/03/14 16:33:03;;;;;;;0.45;0.45;;;11.60;33.30;;;;;;5053250;28;20184;-69
2022/03/14 16:35:30;;;;;;;0.30;0.30;;;11.50;34.00;;;;;;5053045;28;20215;-70
2022/03/14 16:37:57;;;;;;;0.30;0.30;;;11.40;35.10;;;;;;5052914;28;20239;-70
2022/03/14 16:40:24;;;;;;;0.30;0.30;;;11.20;35.10;;;;;;5052315;28;20197;-69
2022/03/14 16:42:51;;;;;;;0.30;0.30;;;11.10;35.80;;;;;;5053106;28;20208;-70
2022/03/14 16:45:23;;;;;;;0.30;0.30;;;11.00;35.80;;;;;;5052988;28;20694;-70
2022/03/14 16:47:51;;;;;;;0.30;0.30;;;10.90;36.60;;;;;;5053771;28;20232;-70
2022/03/14 16:50:19;;;;;;;0.30;0.30;;;10.80;37.20;;;;;;5052912;28;20211;-70
2022/03/14 16:52:46;;;;;;;0.40;0.40;;;10.70;37.80;;;;;;5053214;28;20201;-71
2022/03/14 16:55:15;;;;;;;0.40;0.40;;;10.60;38.60;;;;;;5052644;28;20738;-71
2022/03/14 16:57:42;;;;;;;0.40;0.40;;;10.50;39.40;;;;;;5052636;28;20213;-70
2022/03/14 17:00:11;;;;;;;0.30;0.30;;;10.50;40.00;;;;;;5053216;28;20189;-71
2022/03/14 17:02:39;;;;;;;0.40;0.40;;;10.40;40.80;;;;;;5052946;28;20660;-70
2022/03/14 17:05:08;;;;;;;0.40;0.40;;;10.30;41.50;;;;;;5053528;28;20185;-70
2022/03/14 17:07:36;;;;;;;0.40;0.40;;;10.30;42.50;;;;;;5052544;28;20315;-69
2022/03/14 17:10:04;;;;;;;0.30;0.30;;;10.20;43.50;;;;;;5053597;28;20201;-70
2022/03/14 17:12:30;;;;;;;0.50;0.50;;;10.10;44.80;;;;;;5052937;28;20201;-70
2022/03/14 17:14:57;;;;;;;0.40;0.40;;;10.00;45.90;;;;;;5052736;28;20254;-70
2022/03/14 17:17:26;;;;;;;0.50;0.50;;;10.00;46.80;;;;;;5052815;28;20291;-70
2022/03/14 17:19:53;;;;;;;0.50;0.50;;;9.90;48.60;;;;;;5053137;28;20189;-70
2022/03/14 17:22:20;;;;;;;0.40;0.40;;;9.80;49.20;;;;;;5052691;28;20204;-69
2022/03/14 17:24:49;;;;;;;0.40;0.40;;;9.70;49.20;;;;;;5052292;28;20666;-69
2022/03/14 17:27:16;;;;;;;0.40;0.40;;;9.60;50.20;;;;;;5052488;28;20255;-70
2022/03/14 17:29:44;;;;;;;0.47;0.47;;;9.50;51.50;;;;;;5052675;28;20291;-70
2022/03/14 17:32:11;;;;;;;0.40;0.40;;;9.40;52.70;;;;;;5053072;28;20287;-70
2022/03/14 17:34:38;;;;;;;0.40;0.40;;;9.30;53.60;;;;;;5053123;28;20208;-70
2022/03/14 17:37:06;;;;;;;0.47;0.47;;;9.20;53.50;;;;;;5052569;28;20228;-69
2022/03/14 17:39:34;;;;;;;0.50;0.50;;;9.10;54.10;;;;;;5052895;28;20236;-75
2022/03/14 17:42:03;;;;;;;0.40;0.40;;;9.00;56.40;;;;;;5053832;28;20200;-75
2022/03/14 17:44:29;;;;;;;0.40;0.40;;;9.00;56.70;;;;;;5053130;28;20196;-74
2022/03/14 17:46:56;;;;;;;0.40;0.40;;;8.90;57.00;;;;;;5052149;28;20300;-75
2022/03/14 17:49:23;;;;;;;0.50;0.50;;;8.80;57.80;;;;;;5052666;28;20189;-74
2022/03/14 17:51:50;;;;;;;0.50;0.50;;;8.70;58.50;;;;;;5054751;28;20668;-73
2022/03/14 17:54:17;;;;;;;0.40;0.40;;;8.60;59.60;;;;;;5057577;28;20211;-73
2022/03/14 17:56:45;;;;;;;0.40;0.40;;;8.50;60.40;;;;;;5060466;28;20217;-73
2022/03/14 17:59:14;;;;;;;0.57;0.57;;;8.40;61.50;;;;;;5060457;28;20239;-73
2022/03/14 18:01:41;;;;;;;0.43;0.43;;;8.30;62.10;;;;;;5060285;28;20204;-71
2022/03/14 18:04:09;;;;;;;0.65;0.65;;;8.20;63.50;;;;;;5059202;28;20274;-70
2022/03/14 18:06:36;;;;;;;0.75;0.75;;;8.10;65.00;;;;;;5060233;28;20291;-71
2022/03/14 18:09:05;;;;;;;0.98;0.98;;;8.00;66.10;;;;;;5059776;28;20264;-71
2022/03/14 18:11:34;;;;;;;0.70;0.70;;;7.90;68.30;;;;;;5055624;28;20203;-70
2022/03/14 18:14:01;;;;;;;0.68;0.68;;;7.80;67.80;;;;;;5056077;28;20303;-70
2022/03/14 18:16:29;;;;;;;0.50;0.50;;;7.80;69.20;;;;;;5055645;28;20212;-69
2022/03/14 18:18:56;;;;;;;0.65;0.65;;;7.70;70.50;;;;;;5055741;28;20287;-70
2022/03/14 18:21:23;;;;;;;0.60;0.60;;;7.60;72.30;;;;;;5055615;28;20205;-69
2022/03/14 18:23:50;;;;;;;0.80;0.80;;;7.60;73.50;;;;;;5055515;28;20212;-71
2022/03/14 18:26:17;;;;;;;0.50;0.50;;;7.50;74.30;;;;;;5055142;28;20200;-71
2022/03/14 18:28:43;;;;;;;0.57;0.57;;;7.40;75.20;;;;;;5055544;28;20247;-71
2022/03/14 18:31:10;;;;;;;0.50;0.50;;;7.40;76.50;;;;;;5055160;28;20676;-71
2022/03/14 18:33:47;;;;;;;0.60;0.60;;;7.30;78.00;;;;;;5055173;28;20232;-72
2022/03/14 18:36:14;;;;;;;0.57;0.57;;;7.30;78.60;;;;;;5055112;28;20544;-71
2022/03/14 18:38:41;;;;;;;0.60;0.60;;;7.20;80.20;;;;;;5054927;28;20248;-71
2022/03/14 18:41:08;;;;;;;0.60;0.60;;;7.10;81.60;;;;;;5055056;28;20243;-71
2022/03/14 18:43:35;;;;;;;0.70;0.70;;;7.10;82.20;;;;;;5055293;28;20228;-71
2022/03/14 18:46:02;;;;;;;0.60;0.60;;;7.00;83.10;;;;;;5054867;28;20200;-71
2022/03/14 18:48:29;;;;;;;0.57;0.57;;;6.90;84.90;;;;;;5054862;28;20217;-70
2022/03/14 18:50:57;;;;;;;0.47;0.47;;;6.90;85.30;;;;;;5054930;28;20288;-69
2022/03/14 18:53:24;;;;;;;0.68;0.68;;;6.80;87.80;;;;;;5054558;28;20296;-69
2022/03/14 18:55:52;;;;;;;0.50;0.50;;;6.70;88.90;;;;;;5054735;28;20299;-69
2022/03/14 18:58:19;;;;;;;0.70;0.70;;;6.70;89.50;;;;;;5054756;28;20212;-70
2022/03/14 19:00:47;;;;;;;0.75;0.75;;;6.60;90.00;;;;;;5054746;28;20200;-70
2022/03/14 19:03:17;;;;;;;0.88;0.88;;;6.60;90.60;;;;;;5054049;28;20247;-70
2022/03/14 19:05:46;;;;;;;0.57;0.57;;;6.50;91.10;;;;;;5054897;28;20207;-71
2022/03/14 19:08:17;;;;;;;0.70;0.60;;;6.40;91.90;;;;;;5054861;28;20353;-71
2022/03/14 19:10:44;;;;;;;0.50;0.50;;;6.40;92.60;;;;;;5054531;28;20624;-70
2022/03/14 19:13:11;;;;;;;0.60;0.60;;;6.30;92.80;;;;;;5054827;28;20251;-70
2022/03/14 19:15:38;;;;;;;0.73;0.73;;;6.30;93.20;;;;;;5054787;28;20205;-71
2022/03/14 19:18:05;;;;;;;0.52;0.52;;;6.30;94.60;;;;;;5054333;28;20757;-69
2022/03/14 19:20:34;;;;;;;0.68;0.68;;;6.20;95.50;;;;;;5054775;28;20621;-71
2022/03/14 19:23:01;;;;;;;0.68;0.68;;;6.20;95.50;;;;;;5054416;28;20209;-71
2022/03/14 19:25:29;;;;;;;0.65;0.65;;;6.10;97.00;;;;;;5054427;28;20552;-71
2022/03/14 19:27:56;;;;;;;0.70;0.70;;;6.10;97.70;;;;;;5054401;28;20312;-70
2022/03/14 19:30:23;;;;;;;0.80;0.80;;;6.00;98.20;;;;;;5054578;28;20621;-70
2022/03/14 19:32:50;;;;;;;0.70;0.70;;;6.00;98.60;;;;;;5054294;28;20741;-70
2022/03/14 19:35:31;;;;;;;0.70;0.70;;;6.00;99.90;;;;;;5054324;28;20739;-70
2022/03/14 19:37:58;;;;;;;0.73;0.73;;;5.90;99.90;;;;;;5054255;28;20228;-70
2022/03/14 19:40:25;;;;;;;0.80;0.80;;;5.90;99.90;;;;;;5054095;28;20687;-70
2022/03/14 19:42:54;;;;;;;0.88;0.88;;;5.80;99.90;;;;;;5054338;28;20282;-70
2022/03/14 19:45:23;;;;;;;0.80;0.80;;;5.80;99.90;;;;;;5054267;28;20201;-70
2022/03/14 19:47:50;;;;;;;0.90;0.90;;;5.80;99.90;;;;;;5054235;28;20244;-70
2022/03/14 19:50:19;;;;;;;0.82;0.82;;;5.70;99.90;;;;;;5053832;28;20196;-70
2022/03/14 19:52:46;;;;;;;0.52;0.52;;;5.70;99.90;;;;;;5054131;28;20235;-70
2022/03/14 19:55:13;;;;;;;0.77;0.77;;;5.70;99.90;;;;;;5054450;28;20208;-70
2022/03/14 19:57:40;;;;;;;0.90;0.90;;;5.70;99.90;;;;;;5054091;28;20221;-71
2022/03/14 20:00:10;;;;;;;0.65;0.65;;;5.70;99.90;;;;;;5054043;28;20627;-70
2022/03/14 20:02:37;;;;;;;0.70;0.70;;;5.70;99.90;;;;;;5053615;28;20197;-71
2022/03/14 20:05:04;;;;;;;0.80;0.80;;;5.70;99.90;;;;;;5053688;28;20200;-71
2022/03/14 20:07:31;;;;;;;0.88;0.88;;;5.60;99.90;;;;;;5053699;28;20311;-70
2022/03/14 20:09:58;;;;;;;0.70;0.70;;;5.60;99.90;;;;;;5053836;28;20283;-70
2022/03/14 20:12:25;;;;;;;0.60;0.60;;;5.60;99.90;;;;;;5053485;28;20685;-70
2022/03/14 20:14:52;;;;;;;0.90;0.90;;;5.50;99.90;;;;;;5053700;28;20306;-71
2022/03/14 20:17:20;;;;;;;0.90;0.90;;;5.40;99.90;;;;;;5053805;28;20262;-71
2022/03/14 20:19:50;;;;;;;0.73;0.73;;;5.40;99.90;;;;;;5054803;28;20200;-71
2022/03/14 20:22:19;;;;;;;0.80;0.80;;;5.40;99.90;;;;;;5053677;28;20648;-71
2022/03/14 20:24:48;;;;;;;0.75;0.75;;;5.30;99.90;;;;;;5053751;28;20228;-71
2022/03/14 20:27:15;;;;;;;0.80;0.80;;;5.30;99.90;;;;;;5053510;28;20220;-71
2022/03/14 20:29:42;;;;;;;0.70;0.70;;;5.30;99.90;;;;;;5053310;28;20226;-71
2022/03/14 20:32:09;;;;;;;0.80;0.80;;;5.30;99.90;;;;;;5053652;28;20292;-71
2022/03/14 20:34:37;;;;;;;0.68;0.68;;;5.30;99.90;;;;;;5053169;28;20203;-71
2022/03/14 20:37:06;;;;;;;0.82;0.82;;;5.20;99.90;;;;;;5052977;28;20243;-71
2022/03/14 20:39:34;;;;;;;0.77;0.77;;;5.20;99.90;;;;;;5053400;28;20239;-71
2022/03/14 20:42:01;;;;;;;1.10;1.10;;;5.20;99.90;;;;;;5053303;28;20196;-71
2022/03/14 20:44:28;;;;;;;0.60;0.60;;;5.20;99.90;;;;;;5052894;28;20637;-71
2022/03/14 20:46:55;;;;;;;0.90;0.90;;;5.10;99.90;;;;;;5053114;28;20231;-70
2022/03/14 20:49:22;;;;;;;0.70;0.70;;;5.00;99.90;;;;;;5053146;28;20311;-70
2022/03/14 20:51:51;;;;;;;1.00;1.00;;;5.00;99.90;;;;;;5053759;28;20204;-70
2022/03/14 20:54:17;;;;;;;0.90;0.90;;;5.00;99.90;;;;;;5053057;28;20197;-70
2022/03/14 20:56:44;;;;;;;0.80;0.80;;;5.00;99.90;;;;;;5053206;28;20278;-70
2022/03/14 20:59:11;;;;;;;1.02;0.90;;;5.00;99.90;;;;;;5053366;28;20232;-70
2022/03/14 21:01:38;;;;;;;0.80;0.80;;;4.90;99.90;;;;;;5053050;28;20283;-70
2022/03/14 21:04:07;;;;;;;0.80;0.80;;;4.90;99.90;;;;;;5053500;28;20203;-70
2022/03/14 21:06:36;;;;;;;1.23;1.23;;;4.90;99.90;;;;;;5053076;28;20207;-69
2022/03/14 21:09:04;;;;;;;1.02;1.02;;;4.90;99.90;;;;;;5052628;28;20695;-70
2022/03/14 21:11:33;;;;;;;0.80;0.80;;;4.80;99.90;;;;;;5052980;28;20208;-70
2022/03/14 21:14:00;;;;;;;0.90;0.90;;;4.80;99.90;;;;;;5052964;28;20235;-71
2022/03/14 21:16:26;;;;;;;0.80;0.80;;;4.80;99.90;;;;;;5052806;28;20197;-69
2022/03/14 21:18:56;;;;;;;0.80;0.80;;;4.80;99.90;;;;;;5052883;28;20246;-69
2022/03/14 21:21:23;;;;;;;0.90;0.90;;;4.70;99.90;;;;;;5052878;28;20203;-70
2022/03/14 21:23:51;;;;;;;0.82;0.82;;;4.70;99.90;;;;;;5052587;28;20571;-71
2022/03/14 21:26:23;;;;;;;0.80;0.80;;;4.70;99.90;;;;;;5053898;28;20563;-71
2022/03/14 21:28:50;;;;;;;1.00;1.00;;;4.70;99.90;;;;;;5057216;28;20201;-70
2022/03/14 21:31:17;;;;;;;1.23;1.13;;;4.70;99.90;;;;;;5057333;28;20206;-70
2022/03/14 21:33:44;;;;;;;0.90;0.90;;;4.70;99.90;;;;;;5056530;28;20299;-69
2022/03/14 21:36:11;;;;;;;0.80;0.80;;;4.70;99.90;;;;;;5056569;28;20228;-69
2022/03/14 21:38:38;;;;;;;0.98;0.98;;;4.70;99.90;;;;;;5055975;28;20247;-69
2022/03/14 21:41:10;;;;;;;0.98;0.98;;;4.70;99.90;;;;;;5056432;28;20200;-69
2022/03/14 21:43:38;;;;;;;1.00;1.00;;;4.80;99.90;;;;;;5056433;28;20242;-69
2022/03/14 21:46:05;;;;;;;0.73;0.73;;;4.80;99.90;;;;;;5056469;28;20287;-70
2022/03/14 21:48:32;;;;;;;0.68;0.68;;;4.80;99.90;;;;;;5056088;28;20243;-70
2022/03/14 21:50:59;;;;;;;0.80;0.80;;;4.80;99.90;;;;;;5056238;28;20197;-70
2022/03/14 21:53:26;;;;;;;0.77;0.77;;;4.80;99.90;;;;;;5056343;28;20211;-70
2022/03/14 21:55:52;;;;;;;0.90;0.90;;;4.80;99.90;;;;;;5055877;28;20293;-69
2022/03/14 21:58:19;;;;;;;0.80;0.80;;;4.80;99.90;;;;;;5055890;28;20217;-70
2022/03/14 22:00:47;;;;;;;0.75;0.75;;;4.80;99.90;;;;;;5055815;28;20668;-71
2022/03/14 22:03:18;;;;;;;0.68;0.68;;;4.80;99.90;;;;;;5055771;28;20201;-73
2022/03/14 22:05:45;;;;;;;1.58;0.77;;;4.90;99.90;;;;;;5056602;28;20239;-72
2022/03/14 22:08:13;;;;;;;0.70;0.70;;;4.90;99.90;;;;;;5055765;28;20350;-74
2022/03/14 22:10:39;;;;;;;0.70;0.70;;;4.90;99.90;;;;;;5055617;28;20609;-73
2022/03/14 22:13:09;;;;;;;0.63;0.63;;;4.90;99.90;;;;;;5055470;28;20200;-73
2022/03/14 22:15:37;;;;;;;0.70;0.70;;;4.90;99.90;;;;;;5055983;28;20227;-73
2022/03/14 22:18:08;;;;;;;0.60;0.60;;;4.90;99.90;;;;;;5055621;28;20271;-73
2022/03/14 22:20:35;;;;;;;0.70;0.70;;;4.90;99.90;;;;;;5055618;28;20224;-72
2022/03/14 22:23:02;;;;;;;0.70;0.70;;;4.90;99.90;;;;;;5055549;28;20209;-74
2022/03/14 22:25:29;;;;;;;0.70;0.70;;;4.90;99.90;;;;;;5055517;28;20226;-74
2022/03/14 22:27:56;;;;;;;0.60;0.60;;;4.90;99.90;;;;;;5055089;28;20589;-74
2022/03/14 22:30:26;;;;;;;0.57;0.57;;;4.90;99.90;;;;;;5055496;28;20204;-74
2022/03/14 22:32:53;;;;;;;0.60;0.60;;;4.80;99.90;;;;;;5055604;28;20201;-73
2022/03/14 22:35:24;;;;;;;0.63;0.63;;;4.90;99.90;;;;;;5055381;28;20196;-73
2022/03/14 22:37:51;;;;;;;0.70;0.70;;;4.90;99.90;;;;;;5054005;28;20668;-73
2022/03/14 22:40:18;;;;;;;0.75;0.75;;;4.90;99.90;;;;;;5055110;28;20575;-74
2022/03/14 22:42:46;;;;;;;0.60;0.60;;;4.90;99.90;;;;;;5055222;28;20201;-74
2022/03/14 22:45:13;;;;;;;0.70;0.70;;;4.90;99.90;;;;;;5055149;28;20283;-73
